sensor_id;sensor_type;location;lat;lon;timestamp;pressure;altitude;pressure_sealevel;temperature;humidity
49801;BME280;35698;50.232;30.540;2022-10-04T00:00:42;99286.40;;;25.67;32.48
49801;BME280;35698;50.232;30.540;2022-10-04T00:03:27;99288.48;;;25.85;31.02
49801;BME280;35698;50.232;30.540;2022-10-04T00:05:54;99275.58;;;25.67;30.52
49801;BME280;35698;50.232;30.540;2022-10-04T00:08:21;99290.49;;;26.16;31.20
49801;BME280;35698;50.232;30.540;2022-10-04T00:12:19;99285.72;;;26.04;30.73
49801;BME280;35698;50.232;30.540;2022-10-04T00:13:24;99281.41;;;25.84;30.72
49801;BME280;35698;50.232;30.540;2022-10-04T00:14:36;99288.62;;;26.09;31.70
49801;BME280;35698;50.232;30.540;2022-10-04T00:15:41;99285.88;;;26.29;32.26
49801;BME280;35698;50.232;30.540;2022-10-04T00:16:53;99278.82;;;26.22;32.72
49801;BME280;35698;50.232;30.540;2022-10-04T00:19:40;99289.44;;;26.36;32.67
49801;BME280;35698;50.232;30.540;2022-10-04T00:20:55;99280.48;;;26.36;30.82
49801;BME280;35698;50.232;30.540;2022-10-04T00:23:27;99281.48;;;26.48;32.02
49801;BME280;35698;50.232;30.540;2022-10-04T00:24:32;99280.38;;;26.69;32.07
49801;BME280;35698;50.232;30.540;2022-10-04T00:25:36;99284.16;;;26.61;30.97
49801;BME280;35698;50.232;30.540;2022-10-04T00:27:08;99278.90;;;26.73;31.51
49801;BME280;35698;50.232;30.540;2022-10-04T00:29:36;99274.28;;;26.80;31.00
49801;BME280;35698;50.232;30.540;2022-10-04T00:30:40;99281.88;;;26.58;30.89
49801;BME280;35698;50.232;30.540;2022-10-04T00:33:32;99284.41;;;26.47;32.25
49801;BME280;35698;50.232;30.540;2022-10-04T00:35:45;99285.41;;;26.59;31.40
49801;BME280;35698;50.232;30.540;2022-10-04T00:36:57;99275.36;;;26.72;31.21
49801;BME280;35698;50.232;30.540;2022-10-04T00:38:12;99286.88;;;26.55;30.56
49801;BME280;35698;50.232;30.540;2022-10-04T00:39:35;99288.78;;;26.48;30.86
49801;BME280;35698;50.232;30.540;2022-10-04T00:40:34;99297.93;;;26.53;31.01
49801;BME280;35698;50.232;30.540;2022-10-04T00:42:58;99284.67;;;25.13;31.20
49801;BME280;35698;50.232;30.540;2022-10-04T00:44:30;99292.23;;;25.84;31.19
49801;BME280;35698;50.232;30.540;2022-10-04T00:46:58;99297.58;;;26.10;30.98
49801;BME280;35698;50.232;30.540;2022-10-04T00:49:23;99299.64;;;26.21;32.50
49801;BME280;35698;50.232;30.540;2022-10-04T00:51:49;99292.81;;;25.59;31.09
49801;BME280;35698;50.232;30.540;2022-10-04T00:52:55;99288.89;;;25.82;31.44
49801;BME280;35698;50.232;30.540;2022-10-04T00:54:20;99299.72;;;25.75;30.94
49801;BME280;35698;50.232;30.540;2022-10-04T00:55:50;99301.09;;;26.30;31.63
49801;BME280;35698;50.232;30.540;2022-10-04T00:56:56;99302.17;;;26.03;31.88
49801;BME280;35698;50.232;30.540;2022-10-04T00:59:42;99303.34;;;26.53;32.10
49801;BME280;35698;50.232;30.540;2022-10-04T01:00:47;99302.57;;;26.33;31.96
49801;BME280;35698;50.232;30.540;2022-10-04T01:01:55;99299.62;;;26.48;32.25
49801;BME280;35698;50.232;30.540;2022-10-04T01:03:11;99302.63;;;25.80;31.71
49801;BME280;35698;50.232;30.540;2022-10-04T01:05:51;99308.25;;;25.85;31.64
49801;BME280;35698;50.232;30.540;2022-10-04T01:06:58;99301.38;;;25.83;31.29
49801;BME280;35698;50.232;30.540;2022-10-04T01:08:17;99302.21;;;25.90;31.95
49801;BME280;35698;50.232;30.540;2022-10-04T01:09:31;99301.92;;;26.31;31.71
49801;BME280;35698;50.232;30.540;2022-10-04T01:11:55;99293.47;;;25.88;30.37
49801;BME280;35698;50.232;30.540;2022-10-04T01:13:13;99296.31;;;26.19;31.25
49801;BME280;35698;50.232;30.540;2022-10-04T01:14:29;99290.91;;;26.32;31.08
49801;BME280;35698;50.232;30.540;2022-10-04T01:15:44;99301.08;;;26.43;30.78
49801;BME280;35698;50.232;30.540;2022-10-04T01:16:50;99306.92;;;26.27;31.35
49801;BME280;35698;50.232;30.540;2022-10-04T01:20:59;99309.23;;;26.10;32.20
49801;BME280;35698;50.232;30.540;2022-10-04T01:22:11;99308.42;;;26.03;32.26
49801;BME280;35698;50.232;30.540;2022-10-04T01:24:48;99318.19;;;25.58;30.80
49801;BME280;35698;50.232;30.540;2022-10-04T01:25:51;99311.11;;;26.10;32.16
49801;BME280;35698;50.232;30.540;2022-10-04T01:27:03;99302.53;;;26.46;31.58
49801;BME280;35698;50.232;30.540;2022-10-04T01:28:08;99305.91;;;26.15;30.96
49801;BME280;35698;50.232;30.540;2022-10-04T01:29:15;99303.62;;;26.05;30.71
49801;BME280;35698;50.232;30.540;2022-10-04T01:30:18;99300.92;;;25.53;31.61
49801;BME280;35698;50.232;30.540;2022-10-04T01:31:22;99310.50;;;26.01;31.32
49801;BME280;35698;50.232;30.540;2022-10-04T01:32:33;99309.65;;;26.34;31.20
49801;BME280;35698;50.232;30.540;2022-10-04T01:33:36;99311.28;;;26.48;31.25
49801;BME280;35698;50.232;30.540;2022-10-04T01:34:47;99308.05;;;26.77;30.75
49801;BME280;35698;50.232;30.540;2022-10-04T01:35:51;99311.02;;;26.63;30.54
49801;BME280;35698;50.232;30.540;2022-10-04T01:36:56;99302.96;;;26.43;30.70
49801;BME280;35698;50.232;30.540;2022-10-04T01:39:16;99305.77;;;26.74;30.79
49801;BME280;35698;50.232;30.540;2022-10-04T01:40:20;99304.41;;;26.45;29.82
49801;BME280;35698;50.232;30.540;2022-10-04T01:49:18;99311.73;;;26.12;31.73
49801;BME280;35698;50.232;30.540;2022-10-04T01:50:31;99304.91;;;25.96;30.76
49801;BME280;35698;50.232;30.540;2022-10-04T01:52:06;99308.24;;;25.98;31.29
49801;BME280;35698;50.232;30.540;2022-10-04T01:55:52;99313.82;;;26.10;30.63
49801;BME280;35698;50.232;30.540;2022-10-04T01:57:02;99313.83;;;25.64;30.95
49801;BME280;35698;50.232;30.540;2022-10-04T01:58:21;99310.73;;;26.00;31.52
49801;BME280;35698;50.232;30.540;2022-10-04T02:01:00;99313.62;;;25.59;31.35
49801;BME280;35698;50.232;30.540;2022-10-04T02:07:11;99327.19;;;25.98;31.53
49801;BME280;35698;50.232;30.540;2022-10-04T02:08:16;99326.14;;;25.99;31.16
49801;BME280;35698;50.232;30.540;2022-10-04T02:09:33;99328.02;;;25.92;30.67
49801;BME280;35698;50.232;30.540;2022-10-04T02:10:47;99323.82;;;26.03;30.99
49801;BME280;35698;50.232;30.540;2022-10-04T02:11:52;99334.27;;;25.93;31.00
49801;BME280;35698;50.232;30.540;2022-10-04T02:12:57;99328.85;;;25.93;31.74
49801;BME280;35698;50.232;30.540;2022-10-04T02:14:00;99330.25;;;26.22;31.30
49801;BME280;35698;50.232;30.540;2022-10-04T02:15:12;99334.02;;;26.34;30.98
49801;BME280;35698;50.232;30.540;2022-10-04T02:16:17;99342.34;;;26.39;30.95
49801;BME280;35698;50.232;30.540;2022-10-04T02:18:38;99335.44;;;26.50;30.91
49801;BME280;35698;50.232;30.540;2022-10-04T02:19:42;99337.14;;;26.04;30.64
49801;BME280;35698;50.232;30.540;2022-10-04T02:20:47;99333.19;;;26.07;31.24
49801;BME280;35698;50.232;30.540;2022-10-04T02:22:02;99335.47;;;26.10;31.39
49801;BME280;35698;50.232;30.540;2022-10-04T02:23:07;99336.30;;;26.17;31.00
49801;BME280;35698;50.232;30.540;2022-10-04T02:24:12;99343.41;;;25.65;31.09
49801;BME280;35698;50.232;30.540;2022-10-04T02:25:18;99328.44;;;25.83;30.90
49801;BME280;35698;50.232;30.540;2022-10-04T02:26:41;99342.35;;;26.32;31.39
49801;BME280;35698;50.232;30.540;2022-10-04T02:27:55;99329.54;;;26.72;31.15
49801;BME280;35698;50.232;30.540;2022-10-04T02:28:59;99340.48;;;26.97;31.09
49801;BME280;35698;50.232;30.540;2022-10-04T02:30:11;99341.69;;;26.50;30.78
49801;BME280;35698;50.232;30.540;2022-10-04T02:31:18;99344.63;;;26.42;31.28
49801;BME280;35698;50.232;30.540;2022-10-04T02:32:31;99342.89;;;26.67;30.50
49801;BME280;35698;50.232;30.540;2022-10-04T02:33:42;99337.07;;;26.64;30.90
49801;BME280;35698;50.232;30.540;2022-10-04T02:34:55;99342.47;;;26.70;30.83
49801;BME280;35698;50.232;30.540;2022-10-04T02:36:00;99343.55;;;26.56;30.46
49801;BME280;35698;50.232;30.540;2022-10-04T02:37:04;99339.60;;;26.52;31.10
49801;BME280;35698;50.232;30.540;2022-10-04T02:38:24;99352.16;;;26.98;31.29
49801;BME280;35698;50.232;30.540;2022-10-04T02:39:32;99346.72;;;26.07;30.74
49801;BME280;35698;50.232;30.540;2022-10-04T02:41:55;99341.09;;;26.22;30.84
49801;BME280;35698;50.232;30.540;2022-10-04T02:43:09;99342.35;;;26.32;30.82
49801;BME280;35698;50.232;30.540;2022-10-04T02:44:28;99345.25;;;26.18;30.97
49801;BME280;35698;50.232;30.540;2022-10-04T02:45:54;99342.77;;;26.36;31.01
49801;BME280;35698;50.232;30.540;2022-10-04T02:47:15;99345.47;;;26.03;31.72
49801;BME280;35698;50.232;30.540;2022-10-04T02:48:46;99349.83;;;26.24;31.26
49801;BME280;35698;50.232;30.540;2022-10-04T02:50:07;99360.69;;;25.77;31.43
49801;BME280;35698;50.232;30.540;2022-10-04T02:52:45;99357.37;;;25.95;32.00
49801;BME280;35698;50.232;30.540;2022-10-04T02:55:21;99352.51;;;25.51;33.61
49801;BME280;35698;50.232;30.540;2022-10-04T02:56:24;99356.50;;;26.01;32.48
49801;BME280;35698;50.232;30.540;2022-10-04T02:57:39;99362.98;;;25.87;32.71
49801;BME280;35698;50.232;30.540;2022-10-04T02:58:43;99365.45;;;26.22;32.74
49801;BME280;35698;50.232;30.540;2022-10-04T03:00:21;99360.66;;;26.24;31.53
49801;BME280;35698;50.232;30.540;2022-10-04T03:04:36;99360.66;;;26.10;33.06
49801;BME280;35698;50.232;30.540;2022-10-04T03:05:39;99366.49;;;26.14;32.91
49801;BME280;35698;50.232;30.540;2022-10-04T03:06:51;99364.40;;;26.29;32.75
49801;BME280;35698;50.232;30.540;2022-10-04T03:07:55;99359.66;;;25.92;32.84
49801;BME280;35698;50.232;30.540;2022-10-04T03:09:02;99363.30;;;25.44;32.71
49801;BME280;35698;50.232;30.540;2022-10-04T03:10:14;99364.96;;;25.39;32.71
49801;BME280;35698;50.232;30.540;2022-10-04T03:11:21;99362.83;;;25.21;33.71
49801;BME280;35698;50.232;30.540;2022-10-04T03:12:26;99368.95;;;25.56;33.65
49801;BME280;35698;50.232;30.540;2022-10-04T03:13:30;99370.29;;;25.06;33.64
49801;BME280;35698;50.232;30.540;2022-10-04T03:14:34;99373.33;;;25.64;34.24
49801;BME280;35698;50.232;30.540;2022-10-04T03:15:37;99364.98;;;25.52;33.11
49801;BME280;35698;50.232;30.540;2022-10-04T03:16:43;99375.03;;;25.65;33.20
49801;BME280;35698;50.232;30.540;2022-10-04T03:17:55;99376.64;;;24.92;33.66
49801;BME280;35698;50.232;30.540;2022-10-04T03:18:59;99375.34;;;24.81;40.14
49801;BME280;35698;50.232;30.540;2022-10-04T03:20:04;99369.55;;;25.45;34.69
49801;BME280;35698;50.232;30.540;2022-10-04T03:21:18;99370.89;;;25.89;34.14
49801;BME280;35698;50.232;30.540;2022-10-04T03:22:22;99372.95;;;25.67;33.94
49801;BME280;35698;50.232;30.540;2022-10-04T03:23:28;99373.38;;;25.70;34.13
49801;BME280;35698;50.232;30.540;2022-10-04T03:24:44;99372.76;;;25.75;34.14
49801;BME280;35698;50.232;30.540;2022-10-04T03:27:14;99373.98;;;26.19;34.30
49801;BME280;35698;50.232;30.540;2022-10-04T03:28:18;99386.27;;;26.14;33.19
49801;BME280;35698;50.232;30.540;2022-10-04T03:29:25;99383.56;;;25.68;33.80
49801;BME280;35698;50.232;30.540;2022-10-04T03:30:36;99392.52;;;26.02;35.22
49801;BME280;35698;50.232;30.540;2022-10-04T03:31:44;99393.59;;;25.94;34.08
49801;BME280;35698;50.232;30.540;2022-10-04T03:32:56;99402.31;;;25.83;34.13
49801;BME280;35698;50.232;30.540;2022-10-04T03:34:01;99411.67;;;26.00;38.39
49801;BME280;35698;50.232;30.540;2022-10-04T03:35:15;99415.11;;;27.51;51.08
49801;BME280;35698;50.232;30.540;2022-10-04T03:36:22;99417.52;;;25.91;51.63
49801;BME280;35698;50.232;30.540;2022-10-04T03:37:28;99420.34;;;25.63;46.50
49801;BME280;35698;50.232;30.540;2022-10-04T03:38:34;99418.32;;;25.17;44.85
49801;BME280;35698;50.232;30.540;2022-10-04T03:39:41;99415.06;;;25.35;39.39
49801;BME280;35698;50.232;30.540;2022-10-04T03:40:58;99412.51;;;25.81;39.35
49801;BME280;35698;50.232;30.540;2022-10-04T03:42:14;99408.07;;;24.65;38.22
49801;BME280;35698;50.232;30.540;2022-10-04T03:43:28;99419.31;;;24.68;38.53
49801;BME280;35698;50.232;30.540;2022-10-04T03:44:33;99415.05;;;24.87;38.97
49801;BME280;35698;50.232;30.540;2022-10-04T03:45:45;99417.28;;;24.77;38.87
49801;BME280;35698;50.232;30.540;2022-10-04T03:46:48;99419.06;;;24.63;39.00
49801;BME280;35698;50.232;30.540;2022-10-04T03:47:53;99417.16;;;24.57;38.17
49801;BME280;35698;50.232;30.540;2022-10-04T03:48:59;99418.33;;;24.20;35.69
49801;BME280;35698;50.232;30.540;2022-10-04T03:50:15;99426.00;;;23.95;38.37
49801;BME280;35698;50.232;30.540;2022-10-04T03:51:27;99421.17;;;24.12;38.48
49801;BME280;35698;50.232;30.540;2022-10-04T03:52:33;99430.37;;;23.39;37.28
49801;BME280;35698;50.232;30.540;2022-10-04T03:53:54;99428.74;;;23.59;40.67
49801;BME280;35698;50.232;30.540;2022-10-04T03:55:01;99433.31;;;23.44;40.66
49801;BME280;35698;50.232;30.540;2022-10-04T03:56:18;99431.06;;;23.26;37.34
49801;BME280;35698;50.232;30.540;2022-10-04T03:57:29;99442.23;;;23.44;38.92
49801;BME280;35698;50.232;30.540;2022-10-04T03:58:33;99440.73;;;23.20;38.57
49801;BME280;35698;50.232;30.540;2022-10-04T03:59:46;99438.68;;;23.23;38.24
49801;BME280;35698;50.232;30.540;2022-10-04T04:02:38;99446.88;;;23.00;38.68
49801;BME280;35698;50.232;30.540;2022-10-04T04:03:52;99440.75;;;23.42;38.48
49801;BME280;35698;50.232;30.540;2022-10-04T04:06:31;99444.94;;;23.80;46.24
49801;BME280;35698;50.232;30.540;2022-10-04T04:07:58;99449.75;;;23.13;38.25
49801;BME280;35698;50.232;30.540;2022-10-04T04:09:00;99448.14;;;22.45;46.45
49801;BME280;35698;50.232;30.540;2022-10-04T04:11:24;99446.48;;;23.17;42.92
49801;BME280;35698;50.232;30.540;2022-10-04T04:14:57;99451.15;;;22.79;40.13
49801;BME280;35698;50.232;30.540;2022-10-04T04:16:10;99448.54;;;23.15;41.07
49801;BME280;35698;50.232;30.540;2022-10-04T04:18:40;99445.81;;;26.08;35.17
49801;BME280;35698;50.232;30.540;2022-10-04T04:19:45;99470.07;;;25.07;36.58
49801;BME280;35698;50.232;30.540;2022-10-04T04:20:58;99452.05;;;24.31;37.99
49801;BME280;35698;50.232;30.540;2022-10-04T04:22:03;99450.83;;;24.33;37.75
49801;BME280;35698;50.232;30.540;2022-10-04T04:24:27;99454.81;;;24.37;37.93
49801;BME280;35698;50.232;30.540;2022-10-04T04:25:33;99459.66;;;23.99;38.47
49801;BME280;35698;50.232;30.540;2022-10-04T04:26:49;99456.06;;;23.92;37.88
49801;BME280;35698;50.232;30.540;2022-10-04T04:30:16;99454.22;;;23.57;37.65
49801;BME280;35698;50.232;30.540;2022-10-04T04:31:34;99466.11;;;23.47;36.87
49801;BME280;35698;50.232;30.540;2022-10-04T04:32:40;99474.20;;;23.47;38.50
49801;BME280;35698;50.232;30.540;2022-10-04T04:34:01;99461.81;;;23.68;38.14
49801;BME280;35698;50.232;30.540;2022-10-04T04:35:06;99465.73;;;23.50;39.17
49801;BME280;35698;50.232;30.540;2022-10-04T04:36:19;99471.69;;;23.61;39.29
49801;BME280;35698;50.232;30.540;2022-10-04T04:37:23;99475.30;;;23.02;39.18
49801;BME280;35698;50.232;30.540;2022-10-04T04:38:26;99469.19;;;23.44;39.17
49801;BME280;35698;50.232;30.540;2022-10-04T04:39:31;99470.09;;;23.66;39.14
49801;BME280;35698;50.232;30.540;2022-10-04T04:40:42;99481.34;;;23.70;39.26
49801;BME280;35698;50.232;30.540;2022-10-04T04:41:46;99478.44;;;23.35;37.88
49801;BME280;35698;50.232;30.540;2022-10-04T04:43:00;99485.25;;;23.67;39.64
49801;BME280;35698;50.232;30.540;2022-10-04T04:45:27;99485.05;;;23.18;38.80
49801;BME280;35698;50.232;30.540;2022-10-04T04:46:34;99493.42;;;22.56;38.89
49801;BME280;35698;50.232;30.540;2022-10-04T04:47:52;99486.41;;;21.86;39.14
49801;BME280;35698;50.232;30.540;2022-10-04T04:49:03;99497.55;;;22.29;40.53
49801;BME280;35698;50.232;30.540;2022-10-04T04:51:35;99491.56;;;22.42;41.43
49801;BME280;35698;50.232;30.540;2022-10-04T04:52:42;99495.91;;;22.95;41.15
49801;BME280;35698;50.232;30.540;2022-10-04T04:53:54;99494.28;;;23.45;39.17
49801;BME280;35698;50.232;30.540;2022-10-04T04:54:59;99494.14;;;23.32;39.38
49801;BME280;35698;50.232;30.540;2022-10-04T04:56:11;99499.11;;;23.49;39.52
49801;BME280;35698;50.232;30.540;2022-10-04T04:57:19;99500.24;;;23.55;38.68
49801;BME280;35698;50.232;30.540;2022-10-04T04:58:39;99502.70;;;23.20;38.15
49801;BME280;35698;50.232;30.540;2022-10-04T05:01:06;99506.09;;;23.59;40.03
49801;BME280;35698;50.232;30.540;2022-10-04T05:02:35;99503.09;;;22.50;40.22
49801;BME280;35698;50.232;30.540;2022-10-04T05:03:38;99501.02;;;22.90;39.65
49801;BME280;35698;50.232;30.540;2022-10-04T05:04:50;99507.24;;;23.35;39.73
49801;BME280;35698;50.232;30.540;2022-10-04T05:05:56;99511.98;;;22.88;39.13
49801;BME280;35698;50.232;30.540;2022-10-04T05:07:14;99516.42;;;22.81;38.53
49801;BME280;35698;50.232;30.540;2022-10-04T05:08:48;99512.71;;;22.82;40.07
49801;BME280;35698;50.232;30.540;2022-10-04T05:09:52;99515.61;;;22.20;40.68
49801;BME280;35698;50.232;30.540;2022-10-04T05:12:20;99527.50;;;23.31;39.98
49801;BME280;35698;50.232;30.540;2022-10-04T05:13:30;99522.56;;;22.90;38.95
49801;BME280;35698;50.232;30.540;2022-10-04T05:14:44;99521.22;;;23.74;39.03
49801;BME280;35698;50.232;30.540;2022-10-04T05:15:58;99524.40;;;23.63;39.08
49801;BME280;35698;50.232;30.540;2022-10-04T05:17:14;99528.66;;;23.72;39.36
49801;BME280;35698;50.232;30.540;2022-10-04T05:18:30;99519.91;;;24.06;39.54
49801;BME280;35698;50.232;30.540;2022-10-04T05:19:36;99528.13;;;23.98;39.34
49801;BME280;35698;50.232;30.540;2022-10-04T05:20:45;99532.18;;;24.09;39.09
49801;BME280;35698;50.232;30.540;2022-10-04T05:21:58;99531.27;;;23.66;39.33
49801;BME280;35698;50.232;30.540;2022-10-04T05:23:02;99540.52;;;23.93;39.32
49801;BME280;35698;50.232;30.540;2022-10-04T05:24:08;99532.30;;;23.65;37.93
49801;BME280;35698;50.232;30.540;2022-10-04T05:25:27;99537.44;;;23.96;39.26
49801;BME280;35698;50.232;30.540;2022-10-04T05:26:31;99542.81;;;23.60;39.07
49801;BME280;35698;50.232;30.540;2022-10-04T05:29:06;99551.92;;;23.59;39.03
49801;BME280;35698;50.232;30.540;2022-10-04T05:30:35;99548.58;;;23.57;39.51
49801;BME280;35698;50.232;30.540;2022-10-04T05:34:28;99541.63;;;23.18;39.67
49801;BME280;35698;50.232;30.540;2022-10-04T05:38:57;99557.76;;;23.47;39.44
49801;BME280;35698;50.232;30.540;2022-10-04T05:40:14;99553.49;;;23.68;38.79
49801;BME280;35698;50.232;30.540;2022-10-04T05:41:29;99557.30;;;24.09;40.00
49801;BME280;35698;50.232;30.540;2022-10-04T05:42:42;99556.92;;;23.76;37.90
49801;BME280;35698;50.232;30.540;2022-10-04T05:43:54;99560.83;;;24.10;37.86
49801;BME280;35698;50.232;30.540;2022-10-04T05:44:57;99567.61;;;23.40;38.64
49801;BME280;35698;50.232;30.540;2022-10-04T05:46:30;99559.16;;;23.73;38.16
49801;BME280;35698;50.232;30.540;2022-10-04T05:47:34;99572.34;;;23.53;37.58
49801;BME280;35698;50.232;30.540;2022-10-04T05:48:40;99568.75;;;23.61;37.98
49801;BME280;35698;50.232;30.540;2022-10-04T05:49:45;99573.39;;;23.67;38.44
49801;BME280;35698;50.232;30.540;2022-10-04T05:50:49;99566.95;;;23.53;37.62
49801;BME280;35698;50.232;30.540;2022-10-04T05:52:05;99564.92;;;23.70;37.97
49801;BME280;35698;50.232;30.540;2022-10-04T05:53:29;99565.17;;;23.90;39.68
49801;BME280;35698;50.232;30.540;2022-10-04T05:54:34;99579.07;;;23.57;37.98
49801;BME280;35698;50.232;30.540;2022-10-04T05:59:09;99570.71;;;23.23;38.76
49801;BME280;35698;50.232;30.540;2022-10-04T06:03:07;99576.50;;;22.82;39.47
49801;BME280;35698;50.232;30.540;2022-10-04T06:04:39;99579.82;;;23.36;40.00
49801;BME280;35698;50.232;30.540;2022-10-04T06:05:56;99590.94;;;23.48;39.68
49801;BME280;35698;50.232;30.540;2022-10-04T06:18:58;99604.23;;;23.49;37.77
49801;BME280;35698;50.232;30.540;2022-10-04T06:21:27;99608.62;;;22.61;39.83
49801;BME280;35698;50.232;30.540;2022-10-04T06:22:45;99615.51;;;23.68;40.73
49801;BME280;35698;50.232;30.540;2022-10-04T06:25:28;99612.16;;;23.36;39.25
49801;BME280;35698;50.232;30.540;2022-10-04T06:27:59;99619.20;;;23.96;40.16
49801;BME280;35698;50.232;30.540;2022-10-04T06:29:05;99639.78;;;23.68;37.74
49801;BME280;35698;50.232;30.540;2022-10-04T06:30:17;99631.69;;;23.68;40.73
49801;BME280;35698;50.232;30.540;2022-10-04T06:34:19;99632.25;;;23.63;38.70
49801;BME280;35698;50.232;30.540;2022-10-04T06:35:35;99628.06;;;23.61;39.94
49801;BME280;35698;50.232;30.540;2022-10-04T06:51:12;99656.79;;;23.53;38.89
49801;BME280;35698;50.232;30.540;2022-10-04T06:55:15;99666.19;;;23.58;38.72
49801;BME280;35698;50.232;30.540;2022-10-04T06:59:16;99668.41;;;22.79;39.61
49801;BME280;35698;50.232;30.540;2022-10-04T07:01:48;99674.09;;;23.89;41.21
49801;BME280;35698;50.232;30.540;2022-10-04T07:03:11;99672.41;;;23.88;39.35
49801;BME280;35698;50.232;30.540;2022-10-04T07:04:40;99671.66;;;23.94;39.16
49801;BME280;35698;50.232;30.540;2022-10-04T07:05:54;99673.72;;;23.77;38.39
49801;BME280;35698;50.232;30.540;2022-10-04T07:07:16;99667.57;;;23.98;38.48
49801;BME280;35698;50.232;30.540;2022-10-04T07:08:34;99669.20;;;24.28;39.34
49801;BME280;35698;50.232;30.540;2022-10-04T07:09:44;99665.77;;;24.56;37.35
49801;BME280;35698;50.232;30.540;2022-10-04T07:10:52;99670.98;;;24.21;39.07
49801;BME280;35698;50.232;30.540;2022-10-04T07:12:05;99674.25;;;25.16;37.02
49801;BME280;35698;50.232;30.540;2022-10-04T07:13:15;99669.15;;;25.00;37.66
49801;BME280;35698;50.232;30.540;2022-10-04T07:14:31;99676.02;;;25.59;38.33
49801;BME280;35698;50.232;30.540;2022-10-04T07:17:36;99672.08;;;25.61;34.99
49801;BME280;35698;50.232;30.540;2022-10-04T07:20:33;99686.44;;;25.90;35.24
49801;BME280;35698;50.232;30.540;2022-10-04T07:23:05;99682.72;;;26.45;37.89
49801;BME280;35698;50.232;30.540;2022-10-04T07:24:26;99678.31;;;26.37;36.88
49801;BME280;35698;50.232;30.540;2022-10-04T07:25:51;99682.52;;;26.47;36.72
49801;BME280;35698;50.232;30.540;2022-10-04T07:27:16;99685.06;;;26.61;35.64
49801;BME280;35698;50.232;30.540;2022-10-04T07:29:37;99683.25;;;26.27;33.98
49801;BME280;35698;50.232;30.540;2022-10-04T07:32:27;99689.98;;;25.62;33.61
49801;BME280;35698;50.232;30.540;2022-10-04T07:35:05;99706.56;;;26.76;35.27
49801;BME280;35698;50.232;30.540;2022-10-04T07:36:24;99698.66;;;26.27;34.59
49801;BME280;35698;50.232;30.540;2022-10-04T07:39:09;99709.27;;;26.76;34.08
49801;BME280;35698;50.232;30.540;2022-10-04T07:40:21;99706.64;;;26.35;33.83
49801;BME280;35698;50.232;30.540;2022-10-04T07:42:56;99713.25;;;25.85;34.83
49801;BME280;35698;50.232;30.540;2022-10-04T07:45:40;99717.15;;;25.75;36.17
49801;BME280;35698;50.232;30.540;2022-10-04T07:47:18;99717.81;;;24.86;35.55
49801;BME280;35698;50.232;30.540;2022-10-04T07:48:24;99721.52;;;24.99;35.63
49801;BME280;35698;50.232;30.540;2022-10-04T07:49:38;99718.50;;;25.37;36.62
49801;BME280;35698;50.232;30.540;2022-10-04T07:52:30;99714.81;;;25.44;35.24
49801;BME280;35698;50.232;30.540;2022-10-04T07:56:10;99720.64;;;24.77;35.68
49801;BME280;35698;50.232;30.540;2022-10-04T08:03:28;99730.03;;;25.24;36.46
49801;BME280;35698;50.232;30.540;2022-10-04T08:04:51;99734.06;;;24.35;36.13
49801;BME280;35698;50.232;30.540;2022-10-04T08:10:51;99733.03;;;25.08;36.75
49801;BME280;35698;50.232;30.540;2022-10-04T08:21:16;99747.74;;;23.74;36.80
49801;BME280;35698;50.232;30.540;2022-10-04T08:25:38;99748.83;;;24.54;37.30
49801;BME280;35698;50.232;30.540;2022-10-04T08:26:47;99753.84;;;24.93;38.46
49801;BME280;35698;50.232;30.540;2022-10-04T08:35:47;99764.98;;;25.26;38.15
49801;BME280;35698;50.232;30.540;2022-10-04T08:38:39;99765.80;;;25.47;35.12
49801;BME280;35698;50.232;30.540;2022-10-04T08:41:41;99775.02;;;25.32;38.04
49801;BME280;35698;50.232;30.540;2022-10-04T08:46:21;99783.86;;;24.98;38.89
49801;BME280;35698;50.232;30.540;2022-10-04T08:49:06;99782.36;;;25.16;37.43
49801;BME280;35698;50.232;30.540;2022-10-04T08:59:02;99797.56;;;26.23;37.59
49801;BME280;35698;50.232;30.540;2022-10-04T09:09:02;99805.89;;;25.87;36.37
49801;BME280;35698;50.232;30.540;2022-10-04T09:10:21;99805.78;;;25.73;34.10
49801;BME280;35698;50.232;30.540;2022-10-04T09:18:06;99816.34;;;25.47;35.10
49801;BME280;35698;50.232;30.540;2022-10-04T09:21:09;99820.45;;;25.86;36.16
49801;BME280;35698;50.232;30.540;2022-10-04T09:25:20;99828.20;;;25.03;34.58
49801;BME280;35698;50.232;30.540;2022-10-04T09:26:39;99829.02;;;25.25;35.79
49801;BME280;35698;50.232;30.540;2022-10-04T09:28:24;99827.34;;;25.88;36.31
49801;BME280;35698;50.232;30.540;2022-10-04T09:41:40;99849.44;;;24.92;35.46
49801;BME280;35698;50.232;30.540;2022-10-04T09:46:18;99857.05;;;26.37;33.32
49801;BME280;35698;50.232;30.540;2022-10-04T09:53:19;99852.61;;;25.74;34.41
49801;BME280;35698;50.232;30.540;2022-10-04T10:10:29;99868.63;;;26.59;31.83
49801;BME280;35698;50.232;30.540;2022-10-04T10:14:27;99876.91;;;26.23;33.17
49801;BME280;35698;50.232;30.540;2022-10-04T10:18:18;99884.37;;;26.42;33.77
49801;BME280;35698;50.232;30.540;2022-10-04T10:19:54;99882.34;;;26.51;34.02
49801;BME280;35698;50.232;30.540;2022-10-04T10:22:46;99891.09;;;25.55;35.52
49801;BME280;35698;50.232;30.540;2022-10-04T10:24:11;99888.94;;;25.07;38.24
49801;BME280;35698;50.232;30.540;2022-10-04T10:30:02;99897.78;;;25.37;35.75
49801;BME280;35698;50.232;30.540;2022-10-04T10:31:21;99904.54;;;24.09;36.37
49801;BME280;35698;50.232;30.540;2022-10-04T10:32:42;99907.86;;;24.78;35.90
49801;BME280;35698;50.232;30.540;2022-10-04T10:42:58;99918.61;;;25.22;34.28
49801;BME280;35698;50.232;30.540;2022-10-04T11:11:07;99909.94;;;26.12;31.24
49801;BME280;35698;50.232;30.540;2022-10-04T11:27:03;99932.61;;;26.60;29.93
49801;BME280;35698;50.232;30.540;2022-10-04T11:29:44;99924.10;;;27.04;29.27